Time;durP1;ratioP1;P1;durP2;ratioP2;P2;SDS_P1;SDS_P2;PMS_P1;PMS_P2;Temp;Humidity;BMP_temperature;BMP_pressure;BME280_temperature;BME280_humidity;BME280_pressure;Samples;Min_cycle;Max_cycle;Signal;HPM_P1;HPM_P2
2021/10/25 00:01:30;;;;;;;4.13;1.83;;;;;;;;;;5072181;28;20028;-57
2021/10/25 00:03:55;;;;;;;5.15;1.45;;;;;;;;;;5072697;28;20048;-58
2021/10/25 00:06:21;;;;;;;4.45;1.50;;;;;;;;;;5070233;28;20059;-57
2021/10/25 00:08:46;;;;;;;4.60;1.55;;;;;;;;;;5072927;28;20025;-56
2021/10/25 00:11:11;;;;;;;4.78;1.90;;;;;;;;;;5072511;28;20085;-57
2021/10/25 00:13:37;;;;;;;6.25;1.80;;;;;;;;;;5072576;28;20040;-57
2021/10/25 00:16:02;;;;;;;4.97;1.85;;;;;;;;;;5071984;28;20035;-56
2021/10/25 00:18:28;;;;;;;6.53;2.03;;;;;;;;;;5066256;28;20150;-57
2021/10/25 00:20:53;;;;;;;6.40;2.05;;;;;;;;;;5071811;28;20070;-56
2021/10/25 00:23:18;;;;;;;3.35;1.45;;;;;;;;;;5071090;28;20070;-56
2021/10/25 00:25:43;;;;;;;4.03;1.40;;;;;;;;;;5070154;28;20021;-56
2021/10/25 00:28:09;;;;;;;4.30;1.08;;;;;;;;;;5069000;28;20054;-57
2021/10/25 00:30:34;;;;;;;3.13;1.50;;;;;;;;;;5069621;28;20435;-55
2021/10/25 00:32:59;;;;;;;4.78;1.58;;;;;;;;;;5071581;28;20487;-54
2021/10/25 00:35:24;;;;;;;3.95;1.75;;;;;;;;;;5071051;28;20025;-57
2021/10/25 00:37:50;;;;;;;3.42;1.52;;;;;;;;;;5071705;28;20077;-56
2021/10/25 00:40:15;;;;;;;5.63;1.95;;;;;;;;;;5071927;28;20025;-55
2021/10/25 00:42:40;;;;;;;4.82;2.08;;;;;;;;;;5072209;28;20027;-57
2021/10/25 00:45:05;;;;;;;4.18;1.50;;;;;;;;;;5071489;28;20489;-56
2021/10/25 00:47:31;;;;;;;5.00;1.55;;;;;;;;;;5070548;28;20546;-56
2021/10/25 00:49:56;;;;;;;5.15;1.90;;;;;;;;;;5076197;28;20467;-54
2021/10/25 00:52:21;;;;;;;4.53;1.60;;;;;;;;;;5071350;28;20025;-57
2021/10/25 00:54:46;;;;;;;5.03;2.03;;;;;;;;;;5072011;28;20019;-57
2021/10/25 00:57:12;;;;;;;4.25;1.38;;;;;;;;;;5070460;28;20016;-56
2021/10/25 00:59:37;;;;;;;4.80;1.83;;;;;;;;;;5071723;28;20068;-57
2021/10/25 01:02:02;;;;;;;4.03;1.48;;;;;;;;;;5082602;28;20024;-57
2021/10/25 01:04:28;;;;;;;3.58;1.20;;;;;;;;;;5090735;28;20028;-55
2021/10/25 01:06:54;;;;;;;3.50;1.38;;;;;;;;;;5074905;28;20059;-58
2021/10/25 01:09:19;;;;;;;5.05;1.42;;;;;;;;;;5071367;28;20031;-57
2021/10/25 01:11:44;;;;;;;5.63;2.28;;;;;;;;;;5071483;28;20032;-57
2021/10/25 01:14:10;;;;;;;5.28;1.85;;;;;;;;;;5071657;28;20025;-56
2021/10/25 01:16:35;;;;;;;5.65;1.33;;;;;;;;;;5071041;28;20029;-56
2021/10/25 01:19:00;;;;;;;6.72;1.88;;;;;;;;;;5071602;28;20471;-55
2021/10/25 01:21:26;;;;;;;4.45;1.80;;;;;;;;;;5070004;28;20075;-49
2021/10/25 01:23:51;;;;;;;3.90;1.90;;;;;;;;;;5072174;28;20074;-58
2021/10/25 01:26:18;;;;;;;4.22;2.08;;;;;;;;;;5069659;28;20473;-56
2021/10/25 01:28:44;;;;;;;5.20;1.70;;;;;;;;;;5069695;28;20057;-58
2021/10/25 01:31:09;;;;;;;4.00;1.52;;;;;;;;;;5071386;28;20032;-58
2021/10/25 01:33:35;;;;;;;5.47;1.90;;;;;;;;;;5071730;28;20035;-57
2021/10/25 01:36:02;;;;;;;4.80;1.30;;;;;;;;;;5072020;28;20040;-56
2021/10/25 01:38:28;;;;;;;3.85;1.95;;;;;;;;;;5075293;28;20036;-57
2021/10/25 01:40:53;;;;;;;4.43;1.77;;;;;;;;;;5075117;28;20039;-57
2021/10/25 01:43:18;;;;;;;5.97;1.88;;;;;;;;;;5075218;28;20028;-56
2021/10/25 01:45:45;;;;;;;4.88;1.38;;;;;;;;;;5075097;28;20020;-58
2021/10/25 01:48:10;;;;;;;6.13;1.55;;;;;;;;;;5090920;28;20107;-57
2021/10/25 01:50:36;;;;;;;4.20;2.05;;;;;;;;;;5074761;28;20112;-58
2021/10/25 01:53:04;;;;;;;5.10;2.03;;;;;;;;;;5074390;28;20012;-58
2021/10/25 01:55:29;;;;;;;3.63;1.80;;;;;;;;;;5075083;28;20031;-58
2021/10/25 01:57:55;;;;;;;3.72;1.50;;;;;;;;;;5075144;28;20024;-57
2021/10/25 02:00:20;;;;;;;4.75;2.10;;;;;;;;;;5073860;28;20034;-55
2021/10/25 02:02:45;;;;;;;5.47;1.73;;;;;;;;;;5074824;28;20021;-57
2021/10/25 02:05:10;;;;;;;7.30;1.83;;;;;;;;;;5074495;28;20381;-56
2021/10/25 02:07:36;;;;;;;3.72;1.65;;;;;;;;;;5074754;28;20456;-58
2021/10/25 02:10:01;;;;;;;3.80;1.98;;;;;;;;;;5074774;28;20465;-58
2021/10/25 02:12:26;;;;;;;4.97;2.00;;;;;;;;;;5074546;28;20033;-56
2021/10/25 02:14:51;;;;;;;5.85;2.22;;;;;;;;;;5075630;28;20035;-58
2021/10/25 02:17:16;;;;;;;3.53;1.30;;;;;;;;;;5074493;28;20032;-56
2021/10/25 02:19:42;;;;;;;2.95;1.40;;;;;;;;;;5073453;28;20032;-56
2021/10/25 02:22:07;;;;;;;1.85;1.20;;;;;;;;;;5073504;28;20366;-57
2021/10/25 02:24:33;;;;;;;4.28;1.92;;;;;;;;;;5074911;28;20476;-57
2021/10/25 02:26:59;;;;;;;5.00;1.40;;;;;;;;;;5070817;28;20483;-57
2021/10/25 02:29:24;;;;;;;3.45;1.70;;;;;;;;;;5073258;28;20048;-55
2021/10/25 02:31:50;;;;;;;3.58;1.55;;;;;;;;;;5071162;28;20048;-56
2021/10/25 02:34:15;;;;;;;3.83;1.38;;;;;;;;;;5064947;28;20454;-54
2021/10/25 02:36:41;;;;;;;7.05;2.00;;;;;;;;;;5067207;28;20473;-56
2021/10/25 02:39:06;;;;;;;7.10;1.50;;;;;;;;;;5073757;28;20424;-53
2021/10/25 02:41:31;;;;;;;2.63;1.63;;;;;;;;;;5073999;28;20021;-54
2021/10/25 02:43:56;;;;;;;2.78;1.70;;;;;;;;;;5073895;28;20020;-57
2021/10/25 02:46:22;;;;;;;3.38;1.55;;;;;;;;;;5073967;28;20020;-55
2021/10/25 02:48:47;;;;;;;3.53;1.60;;;;;;;;;;5073047;28;20028;-57
2021/10/25 02:51:13;;;;;;;4.30;1.70;;;;;;;;;;5073257;28;20032;-56
2021/10/25 02:53:38;;;;;;;2.08;1.40;;;;;;;;;;5073188;28;20690;-57
2021/10/25 02:56:03;;;;;;;4.68;1.80;;;;;;;;;;5073751;28;20679;-58
2021/10/25 02:58:29;;;;;;;5.63;1.88;;;;;;;;;;5070947;28;20040;-58
2021/10/25 03:00:54;;;;;;;5.30;1.25;;;;;;;;;;5073283;28;20503;-57
2021/10/25 03:03:20;;;;;;;3.50;1.73;;;;;;;;;;5073375;28;20468;-58
2021/10/25 03:05:45;;;;;;;4.63;2.08;;;;;;;;;;5072905;28;20020;-56
2021/10/25 03:08:10;;;;;;;4.50;2.30;;;;;;;;;;5074036;28;20031;-57
2021/10/25 03:10:35;;;;;;;3.88;2.08;;;;;;;;;;5073389;28;20086;-57
2021/10/25 03:13:00;;;;;;;5.93;1.67;;;;;;;;;;5073285;28;20543;-57
2021/10/25 03:15:26;;;;;;;6.25;2.03;;;;;;;;;;5072312;28;20021;-57
2021/10/25 03:17:51;;;;;;;4.20;1.90;;;;;;;;;;5073812;28;20435;-56
2021/10/25 03:20:16;;;;;;;2.80;1.67;;;;;;;;;;5071537;28;20033;-57
2021/10/25 03:22:41;;;;;;;5.57;1.60;;;;;;;;;;5072863;28;20060;-53
2021/10/25 03:25:07;;;;;;;4.47;1.90;;;;;;;;;;5073100;28;20373;-57
2021/10/25 03:27:32;;;;;;;5.43;2.17;;;;;;;;;;5070494;28;20890;-58
2021/10/25 03:29:58;;;;;;;5.72;1.83;;;;;;;;;;5072039;28;20020;-57
2021/10/25 03:32:23;;;;;;;4.38;2.10;;;;;;;;;;5072627;28;20420;-56
2021/10/25 03:34:49;;;;;;;4.97;1.77;;;;;;;;;;5072719;28;20044;-57
2021/10/25 03:37:14;;;;;;;4.82;1.80;;;;;;;;;;5072164;28;20404;-57
2021/10/25 03:39:41;;;;;;;3.30;1.60;;;;;;;;;;5073094;28;20028;-56
2021/10/25 03:42:14;;;;;;;6.80;2.13;;;;;;;;;;5071569;28;20036;-58
2021/10/25 03:44:46;;;;;;;3.55;1.60;;;;;;;;;;5072680;28;20017;-57
2021/10/25 03:47:18;;;;;;;15.32;8.65;;;;;;;;;;5072477;28;20514;-52
2021/10/25 03:49:55;;;;;;;11.77;5.35;;;;;;;;;;5073079;28;20392;-58
2021/10/25 03:52:29;;;;;;;5.75;2.28;;;;;;;;;;5071754;28;20033;-57
2021/10/25 03:55:12;;;;;;;3.97;2.08;;;;;;;;;;5073013;28;20021;-58
2021/10/25 04:13:52;;;;;;;6.43;2.33;;;;;;;;;;5072568;28;20113;-53
2021/10/25 04:27:28;;;;;;;6.82;2.17;;;;;;;;;;5025860;28;20039;-56
2021/10/25 04:30:01;;;;;;;7.17;2.53;;;;;;;;;;5019816;28;20070;-57
2021/10/25 04:32:27;;;;;;;4.03;2.33;;;;;;;;;;5026035;28;20038;-56
2021/10/25 04:34:52;;;;;;;4.17;2.00;;;;;;;;;;5029969;28;20029;-56
2021/10/25 04:37:17;;;;;;;4.93;2.38;;;;;;;;;;5029289;28;20116;-57
2021/10/25 04:39:42;;;;;;;4.97;2.08;;;;;;;;;;5029618;28;20399;-57
2021/10/25 04:42:08;;;;;;;4.28;1.67;;;;;;;;;;5029770;28;20580;-56
2021/10/25 04:44:33;;;;;;;3.17;2.00;;;;;;;;;;5034683;28;20028;-56
2021/10/25 04:46:58;;;;;;;4.45;2.67;;;;;;;;;;5047575;28;20032;-56
2021/10/25 04:49:23;;;;;;;5.00;2.17;;;;;;;;;;5029386;28;20556;-57
2021/10/25 04:51:48;;;;;;;6.65;2.30;;;;;;;;;;5012344;28;20416;-58
2021/10/25 04:54:14;;;;;;;4.57;2.00;;;;;;;;;;5029968;28;20477;-56
2021/10/25 04:56:39;;;;;;;4.72;1.85;;;;;;;;;;5066743;28;20043;-56
2021/10/25 04:59:04;;;;;;;3.05;2.20;;;;;;;;;;5075406;28;20551;-56
2021/10/25 05:01:29;;;;;;;5.55;2.20;;;;;;;;;;5086004;28;20016;-56
2021/10/25 05:03:54;;;;;;;6.80;2.38;;;;;;;;;;5071778;28;20029;-57
2021/10/25 05:06:20;;;;;;;5.00;2.20;;;;;;;;;;5071152;28;20110;-58
2021/10/25 05:08:46;;;;;;;6.18;2.28;;;;;;;;;;5071853;28;20046;-56
2021/10/25 05:11:11;;;;;;;5.35;2.35;;;;;;;;;;5073405;28;20036;-58
2021/10/25 05:13:36;;;;;;;5.32;1.90;;;;;;;;;;5075543;28;20024;-56
2021/10/25 05:16:01;;;;;;;4.50;2.53;;;;;;;;;;5073251;28;20051;-57
2021/10/25 05:18:27;;;;;;;7.03;2.60;;;;;;;;;;5075721;28;20109;-56
2021/10/25 05:20:52;;;;;;;4.82;2.90;;;;;;;;;;5074623;28;20012;-55
2021/10/25 05:23:17;;;;;;;5.68;2.40;;;;;;;;;;5075053;28;20029;-58
2021/10/25 05:25:42;;;;;;;7.07;2.38;;;;;;;;;;5075164;28;20017;-55
2021/10/25 05:28:07;;;;;;;7.70;2.72;;;;;;;;;;5073632;28;20090;-55
2021/10/25 05:30:33;;;;;;;4.67;2.67;;;;;;;;;;5075447;28;20109;-56
2021/10/25 05:32:58;;;;;;;5.70;2.57;;;;;;;;;;5074047;28;20095;-58
2021/10/25 05:35:24;;;;;;;5.90;2.20;;;;;;;;;;5074655;28;20026;-57
2021/10/25 05:37:49;;;;;;;5.00;2.60;;;;;;;;;;5075450;28;20021;-58
2021/10/25 05:40:15;;;;;;;7.47;2.90;;;;;;;;;;5075187;28;20025;-58
2021/10/25 05:42:40;;;;;;;4.70;2.50;;;;;;;;;;5075381;28;20528;-56
2021/10/25 05:45:05;;;;;;;7.07;2.40;;;;;;;;;;5072679;28;20070;-56
2021/10/25 05:47:32;;;;;;;7.20;3.33;;;;;;;;;;5074810;28;20646;-57
2021/10/25 05:49:58;;;;;;;5.10;2.60;;;;;;;;;;5075056;28;20369;-57
2021/10/25 05:52:23;;;;;;;6.53;3.00;;;;;;;;;;5073866;28;20054;-58
2021/10/25 05:54:49;;;;;;;6.73;2.87;;;;;;;;;;5074311;28;20480;-58
2021/10/25 05:57:16;;;;;;;6.05;3.28;;;;;;;;;;5072150;28;20025;-54
2021/10/25 05:59:41;;;;;;;12.90;5.18;;;;;;;;;;5075408;28;20032;-54
2021/10/25 06:02:22;;;;;;;8.00;3.47;;;;;;;;;;5073373;28;20024;-58
2021/10/25 06:04:48;;;;;;;7.30;3.43;;;;;;;;;;5074477;28;20028;-57
2021/10/25 06:07:13;;;;;;;7.43;3.40;;;;;;;;;;5074392;28;20012;-54
2021/10/25 06:09:38;;;;;;;13.67;6.53;;;;;;;;;;5074950;28;20028;-56
2021/10/25 06:12:09;;;;;;;6.33;3.20;;;;;;;;;;5073474;28;20023;-57
2021/10/25 06:14:39;;;;;;;9.97;3.40;;;;;;;;;;5072208;28;20036;-54
2021/10/25 06:17:16;;;;;;;8.60;3.90;;;;;;;;;;5066440;28;20040;-57
2021/10/25 06:19:42;;;;;;;8.20;3.43;;;;;;;;;;5073771;28;20024;-57
2021/10/25 06:22:08;;;;;;;7.03;3.17;;;;;;;;;;5072436;28;20025;-55
2021/10/25 06:24:33;;;;;;;5.73;3.73;;;;;;;;;;5063663;28;20100;-54
2021/10/25 06:26:58;;;;;;;5.97;2.97;;;;;;;;;;5068349;28;20063;-55
2021/10/25 06:29:23;;;;;;;9.97;3.80;;;;;;;;;;5071864;28;20497;-58
2021/10/25 06:31:50;;;;;;;8.15;3.38;;;;;;;;;;5074094;28;20135;-56
2021/10/25 06:34:24;;;;;;;7.50;3.53;;;;;;;;;;5073537;28;20048;-57
2021/10/25 06:36:51;;;;;;;8.88;4.72;;;;;;;;;;5071093;28;20392;-57
2021/10/25 06:39:22;;;;;;;7.63;3.47;;;;;;;;;;5073488;28;20043;-58
2021/10/25 06:41:47;;;;;;;6.82;3.40;;;;;;;;;;5074105;28;20136;-57
2021/10/25 06:44:12;;;;;;;5.18;3.20;;;;;;;;;;5071910;28;20528;-57
2021/10/25 06:46:42;;;;;;;7.55;3.45;;;;;;;;;;5073275;28;20400;-58
2021/10/25 06:49:08;;;;;;;5.18;3.80;;;;;;;;;;5073277;28;20036;-57
2021/10/25 06:51:33;;;;;;;6.30;3.15;;;;;;;;;;5073400;28;20034;-57
2021/10/25 06:53:59;;;;;;;5.03;2.50;;;;;;;;;;5073741;28;20468;-55
2021/10/25 06:56:24;;;;;;;6.03;2.90;;;;;;;;;;5071444;28;20409;-55
2021/10/25 06:58:50;;;;;;;7.38;2.92;;;;;;;;;;5073430;28;20020;-57
2021/10/25 07:01:16;;;;;;;5.80;2.60;;;;;;;;;;5072700;28;20016;-57
2021/10/25 07:03:41;;;;;;;8.10;2.53;;;;;;;;;;5071842;28;20035;-57
2021/10/25 07:06:07;;;;;;;7.45;3.00;;;;;;;;;;5073043;28;20016;-57
2021/10/25 07:08:33;;;;;;;8.15;2.88;;;;;;;;;;5067903;28;20032;-58
2021/10/25 07:10:59;;;;;;;5.57;2.22;;;;;;;;;;5072498;28;20055;-57
2021/10/25 07:13:25;;;;;;;6.28;3.05;;;;;;;;;;5073560;28;20032;-54
2021/10/25 07:16:01;;;;;;;6.93;2.28;;;;;;;;;;5072964;28;20492;-56
2021/10/25 07:18:36;;;;;;;7.68;3.08;;;;;;;;;;5073333;28;20059;-56
2021/10/25 07:21:27;;;;;;;5.43;2.47;;;;;;;;;;5072734;28;20028;-56
2021/10/25 08:07:31;;;;;;;5.20;2.08;;;;;;;;;;5048134;28;20057;-58
2021/10/25 08:10:00;;;;;;;6.75;2.70;;;;;;;;;;5048947;28;20049;-52
2021/10/25 08:12:30;;;;;;;5.53;2.13;;;;;;;;;;5049990;28;20476;-58
2021/10/25 08:14:58;;;;;;;6.95;2.20;;;;;;;;;;5049545;28;20053;-59
2021/10/25 08:17:26;;;;;;;4.05;2.45;;;;;;;;;;5049655;28;20037;-58
2021/10/25 08:19:52;;;;;;;5.13;1.85;;;;;;;;;;5049787;28;20029;-57
2021/10/25 08:22:17;;;;;;;5.72;1.90;;;;;;;;;;5049333;28;20052;-56
2021/10/25 08:24:48;;;;;;;4.70;2.30;;;;;;;;;;5049423;28;20070;-58
2021/10/25 08:27:14;;;;;;;4.07;1.90;;;;;;;;;;5051686;28;20115;-59
2021/10/25 08:29:40;;;;;;;3.45;1.63;;;;;;;;;;5071424;28;20033;-58
2021/10/25 08:34:58;;;;;;;3.20;1.55;;;;;;;;;;5072196;28;20546;-58
2021/10/25 08:40:00;;;;;;;4.80;1.35;;;;;;;;;;5070060;28;20067;-57
2021/10/25 08:42:33;;;;;;;4.00;1.60;;;;;;;;;;5081877;28;20028;-57
2021/10/25 08:45:18;;;;;;;3.88;1.40;;;;;;;;;;5079518;28;20028;-59
2021/10/25 08:47:46;;;;;;;5.32;1.70;;;;;;;;;;5058135;28;20032;-59
2021/10/25 08:50:15;;;;;;;3.08;1.15;;;;;;;;;;5064068;28;20434;-59
2021/10/25 08:52:40;;;;;;;3.67;1.80;;;;;;;;;;5071395;28;20028;-59
2021/10/25 08:55:07;;;;;;;4.55;1.95;;;;;;;;;;5070504;28;20024;-59
2021/10/25 08:57:33;;;;;;;3.17;1.65;;;;;;;;;;5070710;28;20402;-58
2021/10/25 09:00:17;;;;;;;4.80;1.88;;;;;;;;;;5070084;28;20021;-58
2021/10/25 09:02:44;;;;;;;4.57;1.80;;;;;;;;;;5084263;28;20089;-58
2021/10/25 09:05:10;;;;;;;4.25;2.20;;;;;;;;;;5071634;28;20013;-58
2021/10/25 09:07:54;;;;;;;2.72;1.85;;;;;;;;;;5071217;28;20012;-58
2021/10/25 09:10:21;;;;;;;4.47;2.17;;;;;;;;;;5081435;28;20132;-57
2021/10/25 09:12:51;;;;;;;8.40;1.88;;;;;;;;;;5073525;28;20396;-57
2021/10/25 09:15:16;;;;;;;4.22;1.65;;;;;;;;;;5067782;28;20031;-57
2021/10/25 09:17:42;;;;;;;10.60;2.15;;;;;;;;;;5071107;28;20032;-58
2021/10/25 09:20:08;;;;;;;9.45;2.47;;;;;;;;;;5070415;28;20028;-58
2021/10/25 09:22:33;;;;;;;16.35;2.88;;;;;;;;;;5070179;28;20123;-58
2021/10/25 09:24:58;;;;;;;3.13;1.20;;;;;;;;;;5070284;28;20358;-58
2021/10/25 09:27:42;;;;;;;4.53;1.50;;;;;;;;;;5068387;28;20029;-56
2021/10/25 09:30:09;;;;;;;6.57;2.20;;;;;;;;;;5071380;28;20094;-58
2021/10/25 09:32:34;;;;;;;2.30;1.50;;;;;;;;;;5069750;28;20370;-58
2021/10/25 09:35:03;;;;;;;3.28;1.30;;;;;;;;;;5071310;28;20066;-58
2021/10/25 09:37:33;;;;;;;5.78;1.50;;;;;;;;;;5050966;28;20029;-58
2021/10/25 09:40:08;;;;;;;6.68;1.85;;;;;;;;;;5059258;28;20047;-58
2021/10/25 09:42:53;;;;;;;5.07;1.60;;;;;;;;;;5053851;28;20029;-58
2021/10/25 09:45:49;;;;;;;6.18;1.20;;;;;;;;;;5070090;28;20484;-57
2021/10/25 09:51:00;;;;;;;2.78;1.23;;;;;;;;;;5067409;28;20047;-58
2021/10/25 09:53:42;;;;;;;3.70;1.35;;;;;;;;;;5066067;28;20392;-58
2021/10/25 09:56:11;;;;;;;3.15;1.30;;;;;;;;;;5065828;28;20028;-59
2021/10/25 09:58:44;;;;;;;2.88;1.30;;;;;;;;;;5061501;28;20037;-57
2021/10/25 10:01:11;;;;;;;2.67;1.40;;;;;;;;;;5063149;28;20027;-57
2021/10/25 10:03:36;;;;;;;3.13;1.20;;;;;;;;;;5088900;28;20087;-57
2021/10/25 10:06:01;;;;;;;3.22;1.02;;;;;;;;;;5072188;28;20021;-58
2021/10/25 10:08:27;;;;;;;3.42;1.20;;;;;;;;;;5072588;28;20025;-59
2021/10/25 10:10:53;;;;;;;2.80;1.30;;;;;;;;;;5073437;28;20045;-57
2021/10/25 10:13:19;;;;;;;2.22;1.05;;;;;;;;;;5073373;28;20025;-54
2021/10/25 10:15:44;;;;;;;2.78;1.25;;;;;;;;;;5071041;28;20108;-57
2021/10/25 10:18:13;;;;;;;1.80;1.20;;;;;;;;;;5072957;28;20100;-58
2021/10/25 10:20:39;;;;;;;2.65;1.27;;;;;;;;;;5072564;28;20033;-57
2021/10/25 10:23:06;;;;;;;2.22;0.82;;;;;;;;;;5072919;28;20017;-58
2021/10/25 10:25:37;;;;;;;3.25;1.00;;;;;;;;;;5073023;28;20021;-58
2021/10/25 10:28:05;;;;;;;3.45;1.23;;;;;;;;;;5058742;28;20048;-59
2021/10/25 10:30:30;;;;;;;3.13;0.85;;;;;;;;;;5064356;28;20021;-57
2021/10/25 10:33:01;;;;;;;1.63;0.98;;;;;;;;;;5068624;28;20542;-59
2021/10/25 10:35:36;;;;;;;1.75;0.68;;;;;;;;;;5068267;28;20557;-59
2021/10/25 10:38:02;;;;;;;1.65;0.70;;;;;;;;;;5069003;28;20074;-58
2021/10/25 10:40:35;;;;;;;5.05;1.10;;;;;;;;;;5068794;28;20032;-57
2021/10/25 10:43:01;;;;;;;3.10;1.37;;;;;;;;;;5068667;28;20016;-59
2021/10/25 10:45:26;;;;;;;2.83;1.20;;;;;;;;;;5068463;28;20116;-59
2021/10/25 10:47:59;;;;;;;3.97;1.17;;;;;;;;;;5065894;28;20052;-59
2021/10/25 10:50:29;;;;;;;2.08;1.00;;;;;;;;;;5068915;28;20441;-56
2021/10/25 10:53:07;;;;;;;2.88;0.90;;;;;;;;;;5067675;28;20068;-58
2021/10/25 10:55:35;;;;;;;2.13;0.98;;;;;;;;;;5068619;28;20024;-58
2021/10/25 11:00:34;;;;;;;2.35;1.10;;;;;;;;;;5067969;28;20097;-58
2021/10/25 11:03:01;;;;;;;1.63;0.90;;;;;;;;;;5067673;28;20070;-58
2021/10/25 11:05:28;;;;;;;2.58;0.98;;;;;;;;;;5068324;28;20052;-58
2021/10/25 11:07:58;;;;;;;3.03;1.27;;;;;;;;;;5067859;28;20031;-58
2021/10/25 11:10:28;;;;;;;3.28;0.80;;;;;;;;;;5068230;28;20037;-58
2021/10/25 11:13:00;;;;;;;2.88;0.80;;;;;;;;;;5066863;28;20484;-58
2021/10/25 11:15:34;;;;;;;2.40;1.13;;;;;;;;;;5067986;28;20058;-60
2021/10/25 11:18:01;;;;;;;1.47;0.70;;;;;;;;;;5068168;28;20095;-59
2021/10/25 11:20:26;;;;;;;2.55;1.25;;;;;;;;;;5067439;28;20020;-58
2021/10/25 11:22:51;;;;;;;1.98;0.90;;;;;;;;;;5067555;28;20050;-59
2021/10/25 11:25:18;;;;;;;3.10;0.90;;;;;;;;;;5067922;28;20319;-58
2021/10/25 11:27:43;;;;;;;2.13;1.40;;;;;;;;;;5063278;28;20062;-58
2021/10/25 11:30:13;;;;;;;3.05;1.38;;;;;;;;;;5068168;28;20032;-58
2021/10/25 11:32:39;;;;;;;2.83;1.25;;;;;;;;;;5066880;28;20074;-57
2021/10/25 11:35:06;;;;;;;2.17;1.35;;;;;;;;;;5068445;28;20024;-58
2021/10/25 11:37:32;;;;;;;2.53;1.27;;;;;;;;;;5067812;28;20347;-59
2021/10/25 11:40:06;;;;;;;3.80;1.38;;;;;;;;;;5067398;28;20025;-59
2021/10/25 11:42:35;;;;;;;3.40;1.55;;;;;;;;;;5064237;28;20067;-59
2021/10/25 11:45:03;;;;;;;2.63;1.50;;;;;;;;;;5058893;28;20033;-58
2021/10/25 11:47:36;;;;;;;3.90;1.30;;;;;;;;;;5063692;28;20028;-59
2021/10/25 11:50:08;;;;;;;1.65;1.10;;;;;;;;;;5067104;28;20055;-57
2021/10/25 11:52:48;;;;;;;3.00;1.30;;;;;;;;;;5067084;28;20699;-57
2021/10/25 11:55:15;;;;;;;4.45;1.02;;;;;;;;;;5066444;28;20077;-58
2021/10/25 11:57:51;;;;;;;1.42;0.80;;;;;;;;;;5060792;28;20039;-58
2021/10/25 12:00:19;;;;;;;2.40;0.90;;;;;;;;;;5066960;28;20030;-59
2021/10/25 12:02:44;;;;;;;4.50;0.88;;;;;;;;;;5065071;28;20035;-58
2021/10/25 12:05:10;;;;;;;3.72;1.20;;;;;;;;;;5061181;28;20488;-57
2021/10/25 12:07:45;;;;;;;1.75;0.95;;;;;;;;;;5066957;28;20071;-59
2021/10/25 12:10:11;;;;;;;4.20;0.93;;;;;;;;;;5067379;28;20025;-59
2021/10/25 12:12:36;;;;;;;2.45;0.93;;;;;;;;;;5067672;28;20396;-59
2021/10/25 12:15:02;;;;;;;1.85;0.70;;;;;;;;;;5066995;28;20039;-59
2021/10/25 12:17:31;;;;;;;1.90;0.60;;;;;;;;;;5067343;28;20043;-55
2021/10/25 12:19:56;;;;;;;1.15;0.52;;;;;;;;;;5067355;28;20033;-59
2021/10/25 12:22:22;;;;;;;2.17;0.67;;;;;;;;;;5066558;28;20116;-58
2021/10/25 12:24:48;;;;;;;2.60;0.60;;;;;;;;;;5067194;28;20271;-58
2021/10/25 12:27:19;;;;;;;2.35;0.60;;;;;;;;;;5061111;28;20020;-58
2021/10/25 12:29:44;;;;;;;7.45;1.00;;;;;;;;;;5066312;28;20052;-59
2021/10/25 12:32:12;;;;;;;1.90;0.50;;;;;;;;;;5066797;28;20066;-58
2021/10/25 12:34:50;;;;;;;0.88;0.32;;;;;;;;;;5067882;28;20027;-58
2021/10/25 12:37:23;;;;;;;2.65;0.60;;;;;;;;;;5062048;28;20060;-59
2021/10/25 12:39:48;;;;;;;2.28;0.65;;;;;;;;;;5066297;28;21173;-58
2021/10/25 12:42:14;;;;;;;1.63;0.40;;;;;;;;;;5066827;28;20067;-58
2021/10/25 12:44:43;;;;;;;1.13;0.50;;;;;;;;;;5066410;28;20028;-57
2021/10/25 12:47:12;;;;;;;1.63;0.40;;;;;;;;;;5064463;28;20024;-57
2021/10/25 12:49:38;;;;;;;1.23;0.47;;;;;;;;;;5063564;28;20020;-58
2021/10/25 12:52:05;;;;;;;1.63;0.60;;;;;;;;;;5065831;28;20592;-57
2021/10/25 12:54:35;;;;;;;2.50;0.40;;;;;;;;;;5066288;28;20028;-57
2021/10/25 12:57:05;;;;;;;3.33;0.45;;;;;;;;;;5062048;28;20031;-57
2021/10/25 12:59:30;;;;;;;2.55;0.88;;;;;;;;;;5062510;28;20036;-58
2021/10/25 13:01:57;;;;;;;1.13;0.50;;;;;;;;;;5065128;28;20024;-58
2021/10/25 13:04:22;;;;;;;2.05;0.40;;;;;;;;;;5066461;28;20051;-59
2021/10/25 13:06:48;;;;;;;1.23;0.63;;;;;;;;;;5059047;28;20020;-58
2021/10/25 13:09:14;;;;;;;1.85;0.60;;;;;;;;;;5066429;28;20054;-58
2021/10/25 13:11:39;;;;;;;2.08;0.60;;;;;;;;;;5065121;28;20040;-56
2021/10/25 13:14:08;;;;;;;1.63;0.60;;;;;;;;;;5066537;28;20078;-58
2021/10/25 13:16:44;;;;;;;3.65;1.20;;;;;;;;;;5063824;28;20028;-59
2021/10/25 13:19:16;;;;;;;4.30;0.90;;;;;;;;;;5066361;28;20032;-59
2021/10/25 13:21:42;;;;;;;0.98;0.50;;;;;;;;;;5065356;28;20025;-58
2021/10/25 13:24:08;;;;;;;2.25;0.60;;;;;;;;;;5066331;28;20127;-57
2021/10/25 13:26:35;;;;;;;2.97;0.57;;;;;;;;;;5063322;28;20420;-57
2021/10/25 13:29:00;;;;;;;3.15;0.80;;;;;;;;;;5062185;28;20164;-58
2021/10/25 13:31:25;;;;;;;2.40;1.00;;;;;;;;;;5065823;28;20552;-57
2021/10/25 13:33:50;;;;;;;5.18;1.30;;;;;;;;;;5067609;28;20060;-57
2021/10/25 13:36:16;;;;;;;2.90;0.60;;;;;;;;;;5068135;28;20082;-56
2021/10/25 13:38:42;;;;;;;4.35;0.80;;;;;;;;;;5065198;28;20293;-58
2021/10/25 13:41:07;;;;;;;3.33;0.95;;;;;;;;;;5069758;28;20074;-57
2021/10/25 13:43:32;;;;;;;1.67;0.60;;;;;;;;;;5068173;28;20024;-58
2021/10/25 13:45:58;;;;;;;2.05;0.50;;;;;;;;;;5067974;28;20024;-57
2021/10/25 13:48:23;;;;;;;2.40;0.90;;;;;;;;;;5069675;28;20052;-58
2021/10/25 13:50:48;;;;;;;3.38;0.52;;;;;;;;;;5061733;28;20021;-56
2021/10/25 13:53:13;;;;;;;1.10;0.55;;;;;;;;;;5059853;28;20017;-58
2021/10/25 13:55:38;;;;;;;3.33;0.82;;;;;;;;;;5067922;28;20020;-58
2021/10/25 13:58:04;;;;;;;2.78;0.65;;;;;;;;;;5064800;28;20728;-59
2021/10/25 14:00:29;;;;;;;2.35;0.70;;;;;;;;;;5066939;28;20043;-58
2021/10/25 14:02:56;;;;;;;5.53;0.80;;;;;;;;;;5068535;28;20316;-58
2021/10/25 14:05:23;;;;;;;3.58;0.68;;;;;;;;;;5066356;28;20029;-60
2021/10/25 14:07:48;;;;;;;1.52;0.68;;;;;;;;;;5069242;28;20036;-58
2021/10/25 14:12:40;;;;;;;4.50;0.70;;;;;;;;;;5064544;28;20102;-58
2021/10/25 14:15:19;;;;;;;4.00;0.80;;;;;;;;;;5068560;28;20032;-55
2021/10/25 14:17:45;;;;;;;2.00;0.70;;;;;;;;;;5067454;28;20405;-59
2021/10/25 14:20:11;;;;;;;1.95;0.70;;;;;;;;;;5068960;28;20055;-58
2021/10/25 14:22:36;;;;;;;2.05;0.50;;;;;;;;;;5067285;28;20493;-56
2021/10/25 14:25:01;;;;;;;3.42;0.90;;;;;;;;;;5068644;28;20062;-58
2021/10/25 14:27:27;;;;;;;4.30;0.60;;;;;;;;;;5063588;28;20037;-58
2021/10/25 14:29:52;;;;;;;2.13;0.80;;;;;;;;;;5067665;28;20021;-57
2021/10/25 14:32:18;;;;;;;1.40;0.50;;;;;;;;;;5063368;28;20032;-55
2021/10/25 14:34:43;;;;;;;1.30;0.70;;;;;;;;;;5069575;28;20519;-58
2021/10/25 14:37:08;;;;;;;2.03;0.75;;;;;;;;;;5067587;28;20032;-57
2021/10/25 14:39:39;;;;;;;1.77;0.60;;;;;;;;;;5069165;28;20055;-58
2021/10/25 14:42:10;;;;;;;1.98;0.88;;;;;;;;;;5067809;28;20028;-58
2021/10/25 14:44:49;;;;;;;1.75;0.88;;;;;;;;;;5066167;28;20540;-59
2021/10/25 14:57:21;;;;;;;2.05;0.95;;;;;;;;;;5062684;28;20494;-59
2021/10/25 14:59:47;;;;;;;2.30;0.63;;;;;;;;;;5059917;28;20043;-58
2021/10/25 15:02:12;;;;;;;1.35;0.82;;;;;;;;;;5061315;28;20032;-59
2021/10/25 15:04:37;;;;;;;1.88;0.75;;;;;;;;;;5067285;28;20017;-59
2021/10/25 15:07:03;;;;;;;2.35;0.82;;;;;;;;;;5067416;28;20111;-58
2021/10/25 15:09:28;;;;;;;3.75;1.00;;;;;;;;;;5068216;28;20048;-58
2021/10/25 15:11:54;;;;;;;1.45;0.75;;;;;;;;;;5068331;28;20085;-58
2021/10/25 15:14:20;;;;;;;1.13;0.77;;;;;;;;;;5067624;28;20032;-56
2021/10/25 15:16:46;;;;;;;1.85;0.85;;;;;;;;;;5068308;28;20040;-59
2021/10/25 15:19:11;;;;;;;2.13;1.40;;;;;;;;;;5067654;28;20032;-58
2021/10/25 15:21:39;;;;;;;1.85;0.90;;;;;;;;;;5057678;28;20024;-59
2021/10/25 15:24:05;;;;;;;2.95;1.00;;;;;;;;;;5067944;28;20032;-58
2021/10/25 15:26:31;;;;;;;2.35;1.05;;;;;;;;;;5065461;28;20071;-59
2021/10/25 15:28:56;;;;;;;2.00;1.08;;;;;;;;;;5061471;28;20728;-57
2021/10/25 15:31:21;;;;;;;3.97;1.13;;;;;;;;;;5065742;28;20025;-59
2021/10/25 15:33:47;;;;;;;3.58;1.50;;;;;;;;;;5062481;28;20029;-60
2021/10/25 15:36:12;;;;;;;2.17;1.25;;;;;;;;;;5059107;28;20037;-58
2021/10/25 15:38:37;;;;;;;3.70;1.65;;;;;;;;;;5056556;28;20171;-59
2021/10/25 15:41:07;;;;;;;2.78;1.30;;;;;;;;;;5060523;28;20016;-58
2021/10/25 15:43:33;;;;;;;2.13;1.10;;;;;;;;;;5068039;28;20027;-59
2021/10/25 15:45:58;;;;;;;3.35;1.00;;;;;;;;;;5063052;28;20033;-58
2021/10/25 15:48:23;;;;;;;4.00;1.30;;;;;;;;;;5058016;28;20021;-58
2021/10/25 15:50:48;;;;;;;6.22;1.20;;;;;;;;;;5063648;28;20051;-59
2021/10/25 15:53:14;;;;;;;1.77;1.20;;;;;;;;;;5066275;28;20033;-59
2021/10/25 15:55:39;;;;;;;2.90;1.13;;;;;;;;;;5064412;28;20017;-59
2021/10/25 15:58:04;;;;;;;1.77;1.17;;;;;;;;;;5061638;28;20024;-59
2021/10/25 16:00:30;;;;;;;2.13;1.40;;;;;;;;;;5064785;28;20048;-58
2021/10/25 16:02:55;;;;;;;2.38;1.70;;;;;;;;;;5060568;28;20032;-58
2021/10/25 16:05:22;;;;;;;3.13;1.50;;;;;;;;;;5066687;28;20020;-59
2021/10/25 16:07:47;;;;;;;2.95;1.55;;;;;;;;;;5066673;28;20487;-59
2021/10/25 16:10:14;;;;;;;5.32;1.70;;;;;;;;;;5067062;28;20021;-59
2021/10/25 16:12:39;;;;;;;3.05;1.88;;;;;;;;;;5067048;28;20027;-58
2021/10/25 16:15:05;;;;;;;6.88;2.17;;;;;;;;;;5063161;28;20028;-58
2021/10/25 16:17:30;;;;;;;3.47;2.22;;;;;;;;;;5065249;28;20544;-57